VOZ977 YSSY-YBBN
Flight info
| Callsign | VOZ977 |
|---|---|
| Flight time | 1h 8m |
| Altitude | 37000 |
| Route | OLSEM1/34R OLSEM Y193 BANDA H252 BN |
| Aircraft | B738/M-SDE2E3FGHIRWXY/LB1 |
Departure
| Time | 2026-05-01 07:57 |
|---|---|
| Airport | Sydney Kingsford Smith International Airport (YSSY) |
Arrival
| Time | 2026-05-01 09:05 |
|---|---|
| Airport | Brisbane International Airport (YBBN) |
| Time | Latitude | Longitude | Altitude | Speed | Heading |
|---|---|---|---|---|---|
| 2026-05-01 07:23 | -33.93636 | 151.17988 | 29 ft | 0 kts | 280° |
| 2026-05-01 07:34 | -33.93636 | 151.17989 | 29 ft | 1 kts | 280° |
| 2026-05-01 07:34 | -33.93639 | 151.18008 | 29 ft | 3 kts | 280° |
| 2026-05-01 07:35 | -33.93641 | 151.18022 | 29 ft | 3 kts | 274° |
| 2026-05-01 07:35 | -33.93639 | 151.18042 | 29 ft | 3 kts | 225° |
| 2026-05-01 07:35 | -33.93624 | 151.18051 | 29 ft | 3 kts | 185° |
| 2026-05-01 07:35 | -33.93612 | 151.18052 | 29 ft | 2 kts | 181° |
| 2026-05-01 07:36 | -33.93594 | 151.18053 | 29 ft | 3 kts | 189° |
| 2026-05-01 07:36 | -33.93575 | 151.18057 | 29 ft | 2 kts | 189° |
| 2026-05-01 07:36 | -33.93571 | 151.18058 | 29 ft | 0 kts | 189° |
| 2026-05-01 07:40 | -33.93578 | 151.18057 | 29 ft | 4 kts | 189° |
| 2026-05-01 07:40 | -33.93621 | 151.18052 | 29 ft | 8 kts | 183° |
| 2026-05-01 07:40 | -33.93675 | 151.18052 | 29 ft | 8 kts | 174° |
| 2026-05-01 07:40 | -33.93743 | 151.18060 | 29 ft | 12 kts | 191° |
| 2026-05-01 07:41 | -33.93790 | 151.17986 | 29 ft | 9 kts | 252° |
| 2026-05-01 07:41 | -33.93800 | 151.17944 | 29 ft | 3 kts | 254° |
| 2026-05-01 07:41 | -33.93802 | 151.17935 | 29 ft | 0 kts | 254° |
| 2026-05-01 07:43 | -33.93802 | 151.17933 | 29 ft | 1 kts | 254° |
| 2026-05-01 07:43 | -33.93824 | 151.17844 | 29 ft | 9 kts | 254° |
| 2026-05-01 07:44 | -33.93925 | 151.17786 | 28 ft | 10 kts | 168° |
| 2026-05-01 07:44 | -33.94117 | 151.17836 | 28 ft | 18 kts | 168° |
| 2026-05-01 07:45 | -33.94243 | 151.17868 | 29 ft | 18 kts | 168° |
| 2026-05-01 07:45 | -33.94366 | 151.17900 | 29 ft | 18 kts | 168° |
| 2026-05-01 07:45 | -33.94473 | 151.17893 | 29 ft | 15 kts | 204° |
| 2026-05-01 07:45 | -33.94575 | 151.17895 | 29 ft | 15 kts | 168° |
| 2026-05-01 07:46 | -33.94673 | 151.17920 | 29 ft | 14 kts | 167° |
| 2026-05-01 07:46 | -33.94768 | 151.17946 | 29 ft | 14 kts | 167° |
| 2026-05-01 07:46 | -33.94962 | 151.17996 | 29 ft | 15 kts | 168° |
| 2026-05-01 07:47 | -33.95049 | 151.18018 | 29 ft | 10 kts | 168° |
| 2026-05-01 07:47 | -33.95099 | 151.18068 | 29 ft | 10 kts | 108° |
| 2026-05-01 07:47 | -33.95091 | 151.18147 | 29 ft | 10 kts | 78° |
| 2026-05-01 07:47 | -33.95076 | 151.18234 | 29 ft | 11 kts | 78° |
| 2026-05-01 07:48 | -33.95055 | 151.18350 | 29 ft | 2 kts | 78° |
| 2026-05-01 07:48 | -33.95053 | 151.18364 | 29 ft | 2 kts | 78° |
| 2026-05-01 07:48 | -33.95051 | 151.18375 | 29 ft | 1 kts | 78° |
| 2026-05-01 07:49 | -33.95049 | 151.18383 | 29 ft | 1 kts | 78° |
| 2026-05-01 07:49 | -33.95048 | 151.18388 | 29 ft | 0 kts | 78° |
| 2026-05-01 07:51 | -33.95041 | 151.18435 | 29 ft | 12 kts | 84° |
| 2026-05-01 07:51 | -33.95100 | 151.18528 | 29 ft | 16 kts | 142° |
| 2026-05-01 07:51 | -33.95184 | 151.18619 | 29 ft | 16 kts | 138° |
| 2026-05-01 07:52 | -33.95420 | 151.18746 | 29 ft | 22 kts | 168° |
| 2026-05-01 07:52 | -33.95572 | 151.18783 | 29 ft | 22 kts | 169° |
| 2026-05-01 07:52 | -33.95719 | 151.18824 | 29 ft | 21 kts | 168° |
| 2026-05-01 07:53 | -33.96002 | 151.18897 | 29 ft | 20 kts | 168° |
| 2026-05-01 07:53 | -33.96135 | 151.18932 | 29 ft | 20 kts | 168° |
| 2026-05-01 07:53 | -33.96266 | 151.18966 | 29 ft | 19 kts | 168° |
| 2026-05-01 07:53 | -33.96393 | 151.18998 | 29 ft | 18 kts | 168° |
| 2026-05-01 07:54 | -33.96634 | 151.19062 | 29 ft | 17 kts | 167° |
| 2026-05-01 07:55 | -33.96985 | 151.19107 | 29 ft | 16 kts | 168° |
| 2026-05-01 07:55 | -33.97116 | 151.19160 | 29 ft | 10 kts | 125° |
| 2026-05-01 07:56 | -33.97055 | 151.19372 | 27 ft | 5 kts | 350° |
| 2026-05-01 07:56 | -33.96907 | 151.19332 | 24 ft | 59 kts | 348° |
| 2026-05-01 07:57 | -33.96189 | 151.19152 | 26 ft | 148 kts | 348° |
| 2026-05-01 07:57 | -33.93649 | 151.18904 | 1268 ft | 199 kts | 23° |
| 2026-05-01 07:58 | -33.91475 | 151.20854 | 2732 ft | 193 kts | 43° |
| 2026-05-01 07:58 | -33.89425 | 151.22894 | 3840 ft | 194 kts | 37° |
| 2026-05-01 07:59 | -33.87215 | 151.24857 | 4696 ft | 216 kts | 36° |
| 2026-05-01 07:59 | -33.84384 | 151.27046 | 5449 ft | 258 kts | 38° |
| 2026-05-01 08:00 | -33.81612 | 151.35121 | 8024 ft | 274 kts | 70° |
| 2026-05-01 08:01 | -33.78289 | 151.40695 | 10284 ft | 283 kts | 49° |
| 2026-05-01 08:01 | -33.76983 | 151.42586 | 10502 ft | 306 kts | 50° |
| 2026-05-01 08:01 | -33.75410 | 151.44409 | 10741 ft | 324 kts | 32° |
| 2026-05-01 08:02 | -33.71119 | 151.46352 | 11983 ft | 334 kts | 18° |
| 2026-05-01 08:02 | -33.68892 | 151.47192 | 12671 ft | 338 kts | 18° |
| 2026-05-01 08:03 | -33.64344 | 151.48917 | 14046 ft | 348 kts | 18° |
| 2026-05-01 08:03 | -33.62027 | 151.49808 | 14716 ft | 350 kts | 19° |
| 2026-05-01 08:03 | -33.57320 | 151.51639 | 15985 ft | 360 kts | 19° |
| 2026-05-01 08:04 | -33.52504 | 151.53525 | 17281 ft | 370 kts | 19° |
| 2026-05-01 08:04 | -33.47556 | 151.55467 | 18566 ft | 378 kts | 19° |
| 2026-05-01 08:05 | -33.42503 | 151.57449 | 19696 ft | 385 kts | 19° |
| 2026-05-01 08:05 | -33.39943 | 151.58453 | 20280 ft | 388 kts | 18° |
| 2026-05-01 08:05 | -33.37367 | 151.59462 | 20869 ft | 391 kts | 18° |
| 2026-05-01 08:06 | -33.32158 | 151.61500 | 21977 ft | 398 kts | 18° |
| 2026-05-01 08:06 | -33.26853 | 151.63574 | 23044 ft | 404 kts | 18° |
| 2026-05-01 08:07 | -33.21466 | 151.65678 | 24051 ft | 411 kts | 18° |
| 2026-05-01 08:07 | -33.15995 | 151.67811 | 24914 ft | 416 kts | 18° |
| 2026-05-01 08:08 | -33.13232 | 151.68887 | 25342 ft | 419 kts | 18° |
| 2026-05-01 08:08 | -33.07653 | 151.71059 | 26177 ft | 425 kts | 18° |
| 2026-05-01 08:09 | -33.01995 | 151.73257 | 26958 ft | 430 kts | 18° |
| 2026-05-01 08:09 | -32.99137 | 151.74366 | 27337 ft | 433 kts | 18° |
| 2026-05-01 08:09 | -32.96265 | 151.75479 | 27729 ft | 436 kts | 18° |
| 2026-05-01 08:10 | -32.90459 | 151.77728 | 28462 ft | 441 kts | 18° |
| 2026-05-01 08:10 | -32.84621 | 151.79988 | 29178 ft | 447 kts | 18° |
| 2026-05-01 08:11 | -32.78671 | 151.82288 | 29828 ft | 453 kts | 18° |
| 2026-05-01 08:11 | -32.72644 | 151.84614 | 30466 ft | 458 kts | 18° |
| 2026-05-01 08:12 | -32.66553 | 151.86961 | 30965 ft | 463 kts | 18° |
| 2026-05-01 08:12 | -32.63481 | 151.88144 | 31222 ft | 465 kts | 18° |
| 2026-05-01 08:12 | -32.57316 | 151.90515 | 31973 ft | 463 kts | 18° |
| 2026-05-01 08:13 | -32.54276 | 151.91683 | 32652 ft | 454 kts | 18° |
| 2026-05-01 08:13 | -32.51290 | 151.92829 | 33231 ft | 449 kts | 18° |
| 2026-05-01 08:13 | -32.45320 | 151.95119 | 33345 ft | 452 kts | 17° |
| 2026-05-01 08:14 | -32.39359 | 151.97402 | 33362 ft | 452 kts | 17° |
| 2026-05-01 08:14 | -32.33290 | 151.99722 | 33365 ft | 464 kts | 17° |
| 2026-05-01 08:15 | -32.23911 | 152.03303 | 33358 ft | 477 kts | 17° |
| 2026-05-01 08:16 | -32.17591 | 152.05711 | 33348 ft | 477 kts | 17° |
| 2026-05-01 08:16 | -32.11271 | 152.08116 | 33349 ft | 477 kts | 17° |
| 2026-05-01 08:17 | -32.04954 | 152.10517 | 33356 ft | 477 kts | 17° |
| 2026-05-01 08:17 | -31.98677 | 152.12898 | 33354 ft | 477 kts | 17° |
| 2026-05-01 08:18 | -31.92362 | 152.15291 | 33356 ft | 477 kts | 17° |
| 2026-05-01 08:19 | -31.79728 | 152.20067 | 33351 ft | 477 kts | 17° |
| 2026-05-01 08:19 | -31.73410 | 152.22450 | 33359 ft | 477 kts | 17° |
| 2026-05-01 08:20 | -31.67085 | 152.24833 | 33356 ft | 477 kts | 17° |
| 2026-05-01 08:20 | -31.60757 | 152.27213 | 33355 ft | 478 kts | 17° |
| 2026-05-01 08:21 | -31.54424 | 152.29592 | 33360 ft | 478 kts | 17° |
| 2026-05-01 08:21 | -31.48084 | 152.31970 | 33366 ft | 479 kts | 17° |
| 2026-05-01 08:22 | -31.42807 | 152.33946 | 33359 ft | 479 kts | 17° |
| 2026-05-01 08:22 | -31.36456 | 152.36322 | 33366 ft | 479 kts | 17° |
| 2026-05-01 08:23 | -31.30098 | 152.38698 | 33357 ft | 480 kts | 17° |
| 2026-05-01 08:23 | -31.23731 | 152.41073 | 33355 ft | 481 kts | 17° |
| 2026-05-01 08:24 | -31.17356 | 152.43448 | 33364 ft | 481 kts | 17° |
| 2026-05-01 08:24 | -31.10975 | 152.45822 | 33351 ft | 482 kts | 17° |
| 2026-05-01 08:25 | -31.04585 | 152.48195 | 33355 ft | 482 kts | 17° |
| 2026-05-01 08:25 | -30.98191 | 152.50568 | 33353 ft | 482 kts | 17° |
| 2026-05-01 08:26 | -30.91796 | 152.52937 | 33352 ft | 482 kts | 17° |
| 2026-05-01 08:26 | -30.85399 | 152.55304 | 33346 ft | 483 kts | 17° |
| 2026-05-01 08:27 | -30.78995 | 152.57669 | 33355 ft | 483 kts | 17° |
| 2026-05-01 08:27 | -30.72578 | 152.60008 | 33348 ft | 483 kts | 16° |
| 2026-05-01 08:28 | -30.66156 | 152.62335 | 33352 ft | 484 kts | 16° |
| 2026-05-01 08:28 | -30.59727 | 152.64665 | 33355 ft | 484 kts | 16° |
| 2026-05-01 08:29 | -30.53299 | 152.66994 | 33352 ft | 484 kts | 16° |
| 2026-05-01 08:29 | -30.46864 | 152.69324 | 33349 ft | 485 kts | 16° |
| 2026-05-01 08:30 | -30.40422 | 152.71653 | 33352 ft | 485 kts | 16° |
| 2026-05-01 08:30 | -30.33980 | 152.73978 | 33348 ft | 485 kts | 16° |
| 2026-05-01 08:31 | -30.27604 | 152.76277 | 33331 ft | 486 kts | 16° |
| 2026-05-01 08:31 | -30.21148 | 152.78601 | 33339 ft | 486 kts | 16° |
| 2026-05-01 08:32 | -30.14729 | 152.80908 | 33336 ft | 486 kts | 16° |
| 2026-05-01 08:32 | -30.08264 | 152.83230 | 33332 ft | 487 kts | 16° |
| 2026-05-01 08:33 | -30.01796 | 152.85549 | 33334 ft | 487 kts | 16° |
| 2026-05-01 08:33 | -29.95321 | 152.87868 | 33328 ft | 487 kts | 16° |
| 2026-05-01 08:34 | -29.88841 | 152.90182 | 33322 ft | 488 kts | 16° |
| 2026-05-01 08:34 | -29.82350 | 152.92483 | 33316 ft | 488 kts | 16° |
| 2026-05-01 08:35 | -29.75858 | 152.94780 | 33315 ft | 488 kts | 16° |
| 2026-05-01 08:35 | -29.69364 | 152.97077 | 33314 ft | 488 kts | 15° |
| 2026-05-01 08:36 | -29.62869 | 152.99373 | 33308 ft | 488 kts | 15° |
| 2026-05-01 08:36 | -29.56372 | 153.01666 | 33311 ft | 489 kts | 15° |
| 2026-05-01 08:37 | -29.49872 | 153.03957 | 33303 ft | 489 kts | 15° |
| 2026-05-01 08:37 | -29.43366 | 153.06247 | 33304 ft | 489 kts | 15° |
| 2026-05-01 08:38 | -29.36860 | 153.08534 | 33301 ft | 489 kts | 15° |
| 2026-05-01 08:38 | -29.30349 | 153.10821 | 33299 ft | 489 kts | 15° |
| 2026-05-01 08:39 | -29.23840 | 153.13108 | 33293 ft | 489 kts | 15° |
| 2026-05-01 08:39 | -29.17329 | 153.15401 | 33296 ft | 490 kts | 15° |
| 2026-05-01 08:40 | -29.07560 | 153.18839 | 33288 ft | 490 kts | 15° |
| 2026-05-01 08:40 | -29.01084 | 153.21113 | 33283 ft | 490 kts | 15° |
| 2026-05-01 08:41 | -28.94564 | 153.23399 | 33281 ft | 490 kts | 15° |
| 2026-05-01 08:41 | -28.88040 | 153.25683 | 33286 ft | 490 kts | 15° |
| 2026-05-01 08:42 | -28.81514 | 153.27966 | 33280 ft | 491 kts | 15° |
| 2026-05-01 08:42 | -28.74985 | 153.30246 | 33280 ft | 491 kts | 15° |
| 2026-05-01 08:43 | -28.68456 | 153.32523 | 33275 ft | 491 kts | 15° |
| 2026-05-01 08:43 | -28.65229 | 153.33649 | 33250 ft | 477 kts | 15° |
| 2026-05-01 08:43 | -28.62107 | 153.34739 | 33250 ft | 461 kts | 15° |
| 2026-05-01 08:44 | -28.59083 | 153.35794 | 33244 ft | 447 kts | 15° |
| 2026-05-01 08:44 | -28.56163 | 153.36811 | 33260 ft | 442 kts | 14° |
| 2026-05-01 08:44 | -28.50232 | 153.38865 | 32798 ft | 453 kts | 15° |
| 2026-05-01 08:45 | -28.47199 | 153.39917 | 31897 ft | 460 kts | 15° |
| 2026-05-01 08:45 | -28.44098 | 153.40991 | 30840 ft | 472 kts | 15° |
| 2026-05-01 08:45 | -28.40921 | 153.42091 | 29689 ft | 483 kts | 15° |
| 2026-05-01 08:45 | -28.37693 | 153.43210 | 28755 ft | 485 kts | 15° |
| 2026-05-01 08:46 | -28.34475 | 153.44327 | 28107 ft | 481 kts | 15° |
| 2026-05-01 08:46 | -28.31298 | 153.45429 | 27590 ft | 474 kts | 16° |
| 2026-05-01 08:46 | -28.28161 | 153.46515 | 27056 ft | 468 kts | 16° |
| 2026-05-01 08:46 | -28.25060 | 153.47588 | 26491 ft | 464 kts | 16° |
| 2026-05-01 08:47 | -28.21988 | 153.48649 | 25914 ft | 460 kts | 16° |
| 2026-05-01 08:47 | -28.18935 | 153.49693 | 25348 ft | 456 kts | 14° |
| 2026-05-01 08:47 | -28.15820 | 153.50176 | 24758 ft | 451 kts | 357° |
| 2026-05-01 08:47 | -28.12730 | 153.49722 | 24245 ft | 445 kts | 348° |
| 2026-05-01 08:48 | -28.09701 | 153.49060 | 23662 ft | 442 kts | 347° |
| 2026-05-01 08:48 | -28.06690 | 153.48377 | 22995 ft | 440 kts | 348° |
| 2026-05-01 08:48 | -28.03698 | 153.47709 | 22232 ft | 439 kts | 348° |
| 2026-05-01 08:48 | -28.00702 | 153.47060 | 21168 ft | 447 kts | 349° |
| 2026-05-01 08:49 | -27.97636 | 153.46413 | 20294 ft | 450 kts | 349° |
| 2026-05-01 08:49 | -27.94567 | 153.45777 | 19673 ft | 446 kts | 350° |
| 2026-05-01 08:49 | -27.91542 | 153.45154 | 19145 ft | 439 kts | 350° |
| 2026-05-01 08:49 | -27.88548 | 153.44537 | 18485 ft | 436 kts | 350° |
| 2026-05-01 08:50 | -27.85578 | 153.43925 | 17866 ft | 431 kts | 351° |
| 2026-05-01 08:50 | -27.82644 | 153.43320 | 17229 ft | 426 kts | 351° |
| 2026-05-01 08:50 | -27.79739 | 153.42720 | 16569 ft | 423 kts | 351° |
| 2026-05-01 08:50 | -27.76863 | 153.42127 | 15987 ft | 418 kts | 351° |
| 2026-05-01 08:51 | -27.74022 | 153.41542 | 15403 ft | 413 kts | 351° |
| 2026-05-01 08:51 | -27.71205 | 153.40961 | 14805 ft | 410 kts | 351° |
| 2026-05-01 08:51 | -27.68414 | 153.40386 | 14234 ft | 406 kts | 352° |
| 2026-05-01 08:51 | -27.65656 | 153.39819 | 13628 ft | 402 kts | 352° |
| 2026-05-01 08:52 | -27.62961 | 153.39375 | 13013 ft | 396 kts | 360° |
| 2026-05-01 08:52 | -27.60254 | 153.39437 | 12771 ft | 382 kts | 5° |
| 2026-05-01 08:52 | -27.57657 | 153.39608 | 12666 ft | 366 kts | 6° |
| 2026-05-01 08:52 | -27.55165 | 153.39774 | 12571 ft | 352 kts | 6° |
| 2026-05-01 08:53 | -27.52767 | 153.39918 | 12478 ft | 339 kts | 6° |
| 2026-05-01 08:53 | -27.50458 | 153.40042 | 12395 ft | 326 kts | 5° |
| 2026-05-01 08:53 | -27.48230 | 153.40153 | 12316 ft | 315 kts | 5° |
| 2026-05-01 08:53 | -27.46078 | 153.40259 | 12238 ft | 304 kts | 5° |
| 2026-05-01 08:54 | -27.43995 | 153.40355 | 12063 ft | 297 kts | 6° |
| 2026-05-01 08:54 | -27.41886 | 153.40454 | 11291 ft | 308 kts | 5° |
| 2026-05-01 08:54 | -27.39729 | 153.40553 | 10611 ft | 312 kts | 5° |
| 2026-05-01 08:54 | -27.37560 | 153.40652 | 10021 ft | 312 kts | 6° |
| 2026-05-01 08:55 | -27.35394 | 153.40750 | 9381 ft | 311 kts | 6° |
| 2026-05-01 08:55 | -27.33232 | 153.40848 | 8757 ft | 311 kts | 6° |
| 2026-05-01 08:55 | -27.31071 | 153.40946 | 8138 ft | 310 kts | 6° |
| 2026-05-01 08:55 | -27.28915 | 153.41045 | 7534 ft | 309 kts | 6° |
| 2026-05-01 08:56 | -27.26769 | 153.41143 | 6937 ft | 309 kts | 6° |
| 2026-05-01 08:56 | -27.24622 | 153.41240 | 6329 ft | 308 kts | 6° |
| 2026-05-01 08:56 | -27.22486 | 153.41338 | 5707 ft | 307 kts | 6° |
| 2026-05-01 08:56 | -27.20373 | 153.41305 | 5349 ft | 301 kts | 352° |
| 2026-05-01 08:57 | -27.18460 | 153.40458 | 5095 ft | 293 kts | 328° |
| 2026-05-01 08:57 | -27.16905 | 153.39070 | 4997 ft | 279 kts | 322° |
| 2026-05-01 08:57 | -27.15452 | 153.37687 | 4975 ft | 270 kts | 321° |
| 2026-05-01 08:57 | -27.14068 | 153.36313 | 4960 ft | 264 kts | 312° |
| 2026-05-01 08:58 | -27.13224 | 153.34501 | 4983 ft | 263 kts | 280° |
| 2026-05-01 08:58 | -27.13236 | 153.32467 | 4763 ft | 261 kts | 252° |
| 2026-05-01 08:58 | -27.13897 | 153.30605 | 4535 ft | 255 kts | 240° |
| 2026-05-01 08:58 | -27.14668 | 153.28827 | 4374 ft | 249 kts | 240° |
| 2026-05-01 08:59 | -27.15403 | 153.27128 | 4358 ft | 236 kts | 238° |
| 2026-05-01 08:59 | -27.16384 | 153.25794 | 4328 ft | 210 kts | 207° |
| 2026-05-01 08:59 | -27.17578 | 153.24971 | 4280 ft | 196 kts | 204° |
| 2026-05-01 08:59 | -27.18763 | 153.24217 | 4058 ft | 196 kts | 202° |
| 2026-05-01 09:00 | -27.19960 | 153.23505 | 3802 ft | 192 kts | 201° |
| 2026-05-01 09:00 | -27.21115 | 153.22834 | 3547 ft | 182 kts | 200° |
| 2026-05-01 09:00 | -27.22196 | 153.22209 | 3340 ft | 168 kts | 200° |
| 2026-05-01 09:00 | -27.23204 | 153.21629 | 3100 ft | 158 kts | 199° |
| 2026-05-01 09:01 | -27.24135 | 153.21092 | 2940 ft | 147 kts | 198° |
| 2026-05-01 09:01 | -27.25033 | 153.20578 | 2730 ft | 144 kts | 198° |
| 2026-05-01 09:01 | -27.25912 | 153.20074 | 2547 ft | 141 kts | 198° |
| 2026-05-01 09:01 | -27.26792 | 153.19569 | 2362 ft | 143 kts | 198° |
| 2026-05-01 09:02 | -27.27664 | 153.19068 | 2156 ft | 142 kts | 198° |
| 2026-05-01 09:02 | -27.28542 | 153.18562 | 1976 ft | 139 kts | 198° |
| 2026-05-01 09:02 | -27.29404 | 153.18067 | 1791 ft | 140 kts | 199° |
| 2026-05-01 09:02 | -27.30260 | 153.17575 | 1615 ft | 138 kts | 199° |
| 2026-05-01 09:03 | -27.31110 | 153.17085 | 1426 ft | 134 kts | 200° |
| 2026-05-01 09:03 | -27.31957 | 153.16599 | 1256 ft | 133 kts | 200° |
| 2026-05-01 09:03 | -27.32754 | 153.16138 | 1060 ft | 125 kts | 199° |
| 2026-05-01 09:03 | -27.33509 | 153.15708 | 922 ft | 123 kts | 200° |
| 2026-05-01 09:04 | -27.34285 | 153.15262 | 766 ft | 125 kts | 203° |
| 2026-05-01 09:04 | -27.35075 | 153.14812 | 531 ft | 126 kts | 204° |
| 2026-05-01 09:04 | -27.35834 | 153.14368 | 383 ft | 124 kts | 206° |
| 2026-05-01 09:04 | -27.36596 | 153.13928 | 238 ft | 122 kts | 206° |
| 2026-05-01 09:05 | -27.37344 | 153.13501 | 91 ft | 119 kts | 205° |
| 2026-05-01 09:05 | -27.38054 | 153.13098 | 21 ft | 103 kts | 207° |
| 2026-05-01 09:05 | -27.38558 | 153.12809 | 23 ft | 59 kts | 207° |
| 2026-05-01 09:05 | -27.38817 | 153.12652 | 22 ft | 33 kts | 212° |
| 2026-05-01 09:06 | -27.38964 | 153.12511 | 19 ft | 21 kts | 229° |
| 2026-05-01 09:06 | -27.39033 | 153.12407 | 19 ft | 16 kts | 235° |
| 2026-05-01 09:06 | -27.39067 | 153.12349 | 18 ft | 4 kts | 237° |
| 2026-05-01 09:06 | -27.39074 | 153.12336 | 19 ft | 2 kts | 237° |
| 2026-05-01 09:07 | -27.39075 | 153.12333 | 18 ft | 0 kts | 237° |
| 2026-05-01 09:07 | -27.39077 | 153.12331 | 18 ft | 2 kts | 237° |
| 2026-05-01 09:08 | -27.39098 | 153.12294 | 18 ft | 7 kts | 237° |
| 2026-05-01 09:08 | -27.39131 | 153.12234 | 18 ft | 10 kts | 249° |
| 2026-05-01 09:08 | -27.39124 | 153.12183 | 19 ft | 10 kts | 302° |
| 2026-05-01 09:08 | -27.39063 | 153.12156 | 17 ft | 10 kts | 12° |
| 2026-05-01 09:09 | -27.39002 | 153.12189 | 18 ft | 10 kts | 27° |
| 2026-05-01 09:09 | -27.38948 | 153.12217 | 17 ft | 8 kts | 13° |
| 2026-05-01 09:09 | -27.38885 | 153.12187 | 18 ft | 8 kts | 306° |
| 2026-05-01 09:09 | -27.38872 | 153.12151 | 17 ft | 7 kts | 282° |
| 2026-05-01 09:10 | -27.38870 | 153.12094 | 17 ft | 7 kts | 281° |
| 2026-05-01 09:10 | -27.38854 | 153.12045 | 17 ft | 5 kts | 292° |
| 2026-05-01 09:10 | -27.38845 | 153.12021 | 17 ft | 2 kts | 292° |
| 2026-05-01 09:10 | -27.38839 | 153.12006 | 17 ft | 1 kts | 293° |
| 2026-05-01 09:11 | -27.38838 | 153.12004 | 17 ft | 0 kts | 293° |